sensor_id;sensor_type;location;lat;lon;timestamp;temperature;humidity
11599;DHT22;5855;48.840;9.188;2023-12-07T00:00:17;2.60;99.90
11599;DHT22;5855;48.840;9.188;2023-12-07T00:02:44;2.60;99.90
11599;DHT22;5855;48.840;9.188;2023-12-07T00:05:11;2.60;99.90
11599;DHT22;5855;48.840;9.188;2023-12-07T00:07:38;2.60;99.90
11599;DHT22;5855;48.840;9.188;2023-12-07T00:10:07;2.60;99.90
11599;DHT22;5855;48.840;9.188;2023-12-07T00:12:34;2.60;99.90
11599;DHT22;5855;48.840;9.188;2023-12-07T00:15:01;2.60;99.90
11599;DHT22;5855;48.840;9.188;2023-12-07T00:17:29;2.60;99.90
11599;DHT22;5855;48.840;9.188;2023-12-07T00:19:55;2.60;99.90
11599;DHT22;5855;48.840;9.188;2023-12-07T00:22:22;2.60;99.90
11599;DHT22;5855;48.840;9.188;2023-12-07T00:24:50;2.60;99.90
11599;DHT22;5855;48.840;9.188;2023-12-07T00:27:18;2.70;99.90
11599;DHT22;5855;48.840;9.188;2023-12-07T00:29:45;2.70;99.90
11599;DHT22;5855;48.840;9.188;2023-12-07T00:32:11;2.70;99.90
11599;DHT22;5855;48.840;9.188;2023-12-07T00:34:38;2.70;99.90
11599;DHT22;5855;48.840;9.188;2023-12-07T00:37:05;2.80;99.90
11599;DHT22;5855;48.840;9.188;2023-12-07T00:39:32;2.80;99.90
11599;DHT22;5855;48.840;9.188;2023-12-07T00:41:59;2.80;99.90
11599;DHT22;5855;48.840;9.188;2023-12-07T00:44:27;2.90;99.90
11599;DHT22;5855;48.840;9.188;2023-12-07T00:46:54;3.00;99.90
11599;DHT22;5855;48.840;9.188;2023-12-07T00:49:21;3.10;99.90
11599;DHT22;5855;48.840;9.188;2023-12-07T00:51:48;3.10;99.90
11599;DHT22;5855;48.840;9.188;2023-12-07T00:54:14;3.10;99.90
11599;DHT22;5855;48.840;9.188;2023-12-07T00:56:41;3.20;99.90
11599;DHT22;5855;48.840;9.188;2023-12-07T00:59:08;3.20;99.90
11599;DHT22;5855;48.840;9.188;2023-12-07T01:01:36;3.20;99.90
11599;DHT22;5855;48.840;9.188;2023-12-07T01:04:04;3.20;99.90
11599;DHT22;5855;48.840;9.188;2023-12-07T01:06:31;3.10;99.90
11599;DHT22;5855;48.840;9.188;2023-12-07T01:08:58;3.10;99.90
11599;DHT22;5855;48.840;9.188;2023-12-07T01:11:25;3.00;99.90
11599;DHT22;5855;48.840;9.188;2023-12-07T01:13:52;3.00;99.90
11599;DHT22;5855;48.840;9.188;2023-12-07T01:16:19;3.00;99.90
11599;DHT22;5855;48.840;9.188;2023-12-07T01:18:47;3.00;99.90
11599;DHT22;5855;48.840;9.188;2023-12-07T01:21:14;3.00;99.90
11599;DHT22;5855;48.840;9.188;2023-12-07T01:23:41;3.00;99.90
11599;DHT22;5855;48.840;9.188;2023-12-07T01:26:10;3.00;99.90
11599;DHT22;5855;48.840;9.188;2023-12-07T01:28:36;3.00;99.90
11599;DHT22;5855;48.840;9.188;2023-12-07T01:31:03;3.10;99.90
11599;DHT22;5855;48.840;9.188;2023-12-07T01:33:30;3.10;99.90
11599;DHT22;5855;48.840;9.188;2023-12-07T01:35:58;3.10;99.90
11599;DHT22;5855;48.840;9.188;2023-12-07T01:38:25;3.00;99.90
11599;DHT22;5855;48.840;9.188;2023-12-07T01:40:52;3.00;99.90
11599;DHT22;5855;48.840;9.188;2023-12-07T01:43:19;3.00;99.90
11599;DHT22;5855;48.840;9.188;2023-12-07T01:45:46;3.00;99.90
11599;DHT22;5855;48.840;9.188;2023-12-07T01:48:13;3.00;99.90
11599;DHT22;5855;48.840;9.188;2023-12-07T01:50:40;3.00;99.90
11599;DHT22;5855;48.840;9.188;2023-12-07T01:53:09;3.00;99.90
11599;DHT22;5855;48.840;9.188;2023-12-07T01:55:38;3.00;99.90
11599;DHT22;5855;48.840;9.188;2023-12-07T01:58:06;2.90;99.90
11599;DHT22;5855;48.840;9.188;2023-12-07T02:00:34;2.90;99.90
11599;DHT22;5855;48.840;9.188;2023-12-07T02:03:03;2.90;99.90
11599;DHT22;5855;48.840;9.188;2023-12-07T02:05:31;2.80;99.90
11599;DHT22;5855;48.840;9.188;2023-12-07T02:07:58;2.80;99.90
11599;DHT22;5855;48.840;9.188;2023-12-07T02:10:26;2.80;99.90
11599;DHT22;5855;48.840;9.188;2023-12-07T02:12:54;2.70;99.90
11599;DHT22;5855;48.840;9.188;2023-12-07T02:15:21;2.70;99.90
11599;DHT22;5855;48.840;9.188;2023-12-07T02:17:53;2.70;99.90
11599;DHT22;5855;48.840;9.188;2023-12-07T02:20:28;2.70;99.90
11599;DHT22;5855;48.840;9.188;2023-12-07T02:22:58;2.60;99.90
11599;DHT22;5855;48.840;9.188;2023-12-07T02:25:32;2.60;99.90
11599;DHT22;5855;48.840;9.188;2023-12-07T02:28:03;2.60;99.90
11599;DHT22;5855;48.840;9.188;2023-12-07T02:30:30;2.50;99.90
11599;DHT22;5855;48.840;9.188;2023-12-07T02:32:57;2.50;99.90
11599;DHT22;5855;48.840;9.188;2023-12-07T02:35:26;2.40;99.90
11599;DHT22;5855;48.840;9.188;2023-12-07T02:37:53;2.40;99.90
11599;DHT22;5855;48.840;9.188;2023-12-07T02:40:24;2.30;99.90
11599;DHT22;5855;48.840;9.188;2023-12-07T02:42:51;2.30;99.90
11599;DHT22;5855;48.840;9.188;2023-12-07T02:45:21;2.20;99.90
11599;DHT22;5855;48.840;9.188;2023-12-07T02:47:48;2.20;99.90
11599;DHT22;5855;48.840;9.188;2023-12-07T02:50:14;2.10;99.90
11599;DHT22;5855;48.840;9.188;2023-12-07T02:52:41;2.10;99.90
11599;DHT22;5855;48.840;9.188;2023-12-07T02:55:08;2.10;99.90
11599;DHT22;5855;48.840;9.188;2023-12-07T02:57:35;2.00;99.90
11599;DHT22;5855;48.840;9.188;2023-12-07T03:00:02;2.00;99.90
11599;DHT22;5855;48.840;9.188;2023-12-07T03:02:33;1.90;99.90
11599;DHT22;5855;48.840;9.188;2023-12-07T03:05:00;1.90;99.90
11599;DHT22;5855;48.840;9.188;2023-12-07T03:07:27;1.90;99.90
11599;DHT22;5855;48.840;9.188;2023-12-07T03:09:54;1.80;99.90
11599;DHT22;5855;48.840;9.188;2023-12-07T03:12:20;1.80;99.90
11599;DHT22;5855;48.840;9.188;2023-12-07T03:14:48;1.80;99.90
11599;DHT22;5855;48.840;9.188;2023-12-07T03:17:15;1.80;99.90
11599;DHT22;5855;48.840;9.188;2023-12-07T03:19:43;1.70;99.90
11599;DHT22;5855;48.840;9.188;2023-12-07T03:22:10;1.70;99.90
11599;DHT22;5855;48.840;9.188;2023-12-07T03:24:39;1.70;99.90
11599;DHT22;5855;48.840;9.188;2023-12-07T03:27:15;1.60;99.90
11599;DHT22;5855;48.840;9.188;2023-12-07T03:29:42;1.60;99.90
11599;DHT22;5855;48.840;9.188;2023-12-07T03:32:09;1.50;99.90
11599;DHT22;5855;48.840;9.188;2023-12-07T03:34:35;1.50;99.90
11599;DHT22;5855;48.840;9.188;2023-12-07T03:37:04;1.40;99.90
11599;DHT22;5855;48.840;9.188;2023-12-07T03:39:31;1.30;99.90
11599;DHT22;5855;48.840;9.188;2023-12-07T03:41:58;1.30;99.90
11599;DHT22;5855;48.840;9.188;2023-12-07T03:44:25;1.20;99.90
11599;DHT22;5855;48.840;9.188;2023-12-07T03:46:53;1.20;99.90
11599;DHT22;5855;48.840;9.188;2023-12-07T03:49:19;1.20;99.90
11599;DHT22;5855;48.840;9.188;2023-12-07T03:51:46;1.10;99.90
11599;DHT22;5855;48.840;9.188;2023-12-07T03:54:14;1.20;99.90
11599;DHT22;5855;48.840;9.188;2023-12-07T03:56:41;1.30;99.90
11599;DHT22;5855;48.840;9.188;2023-12-07T03:59:08;1.30;99.90
11599;DHT22;5855;48.840;9.188;2023-12-07T04:01:35;1.30;99.90
11599;DHT22;5855;48.840;9.188;2023-12-07T04:04:02;1.30;99.90
11599;DHT22;5855;48.840;9.188;2023-12-07T04:06:30;1.20;99.90
11599;DHT22;5855;48.840;9.188;2023-12-07T04:08:57;1.20;99.90
11599;DHT22;5855;48.840;9.188;2023-12-07T04:11:25;1.10;99.90
11599;DHT22;5855;48.840;9.188;2023-12-07T04:13:52;1.10;99.90
11599;DHT22;5855;48.840;9.188;2023-12-07T04:16:19;1.00;99.90
11599;DHT22;5855;48.840;9.188;2023-12-07T04:18:46;1.00;99.90
11599;DHT22;5855;48.840;9.188;2023-12-07T04:21:13;0.80;99.90
11599;DHT22;5855;48.840;9.188;2023-12-07T04:23:39;0.80;99.90
11599;DHT22;5855;48.840;9.188;2023-12-07T04:26:06;0.70;99.90
11599;DHT22;5855;48.840;9.188;2023-12-07T04:28:34;0.60;99.90
11599;DHT22;5855;48.840;9.188;2023-12-07T04:31:01;0.50;99.90
11599;DHT22;5855;48.840;9.188;2023-12-07T04:33:28;0.50;99.90
11599;DHT22;5855;48.840;9.188;2023-12-07T04:35:55;0.40;99.90
11599;DHT22;5855;48.840;9.188;2023-12-07T04:38:22;0.40;99.90
11599;DHT22;5855;48.840;9.188;2023-12-07T04:40:49;0.40;99.90
11599;DHT22;5855;48.840;9.188;2023-12-07T04:43:15;0.30;99.90
11599;DHT22;5855;48.840;9.188;2023-12-07T04:45:44;0.30;99.90
11599;DHT22;5855;48.840;9.188;2023-12-07T04:48:10;0.30;99.90
11599;DHT22;5855;48.840;9.188;2023-12-07T04:50:37;0.30;99.90
11599;DHT22;5855;48.840;9.188;2023-12-07T04:53:04;0.30;99.90
11599;DHT22;5855;48.840;9.188;2023-12-07T04:55:31;0.30;99.90
11599;DHT22;5855;48.840;9.188;2023-12-07T04:57:58;0.30;99.90
11599;DHT22;5855;48.840;9.188;2023-12-07T05:00:25;0.30;99.90
11599;DHT22;5855;48.840;9.188;2023-12-07T05:02:54;0.20;99.90
11599;DHT22;5855;48.840;9.188;2023-12-07T05:05:21;0.20;99.90
11599;DHT22;5855;48.840;9.188;2023-12-07T05:07:47;0.10;99.90
11599;DHT22;5855;48.840;9.188;2023-12-07T05:10:14;0.10;99.90
11599;DHT22;5855;48.840;9.188;2023-12-07T05:12:41;0.10;99.90
11599;DHT22;5855;48.840;9.188;2023-12-07T05:15:08;0.10;99.90
11599;DHT22;5855;48.840;9.188;2023-12-07T05:17:35;0.00;99.90
11599;DHT22;5855;48.840;9.188;2023-12-07T05:20:05;0.00;99.90
11599;DHT22;5855;48.840;9.188;2023-12-07T05:22:32;0.00;99.90
11599;DHT22;5855;48.840;9.188;2023-12-07T05:24:59;-0.10;99.90
11599;DHT22;5855;48.840;9.188;2023-12-07T05:27:26;-0.10;99.90
11599;DHT22;5855;48.840;9.188;2023-12-07T05:29:53;-0.10;99.90
11599;DHT22;5855;48.840;9.188;2023-12-07T05:32:20;-0.20;99.90
11599;DHT22;5855;48.840;9.188;2023-12-07T05:34:47;-0.20;99.90
11599;DHT22;5855;48.840;9.188;2023-12-07T05:37:15;-0.20;99.90
11599;DHT22;5855;48.840;9.188;2023-12-07T05:39:42;-0.30;99.90
11599;DHT22;5855;48.840;9.188;2023-12-07T05:42:08;-0.30;99.90
11599;DHT22;5855;48.840;9.188;2023-12-07T05:44:35;-0.30;99.90
11599;DHT22;5855;48.840;9.188;2023-12-07T05:47:02;-0.40;99.90
11599;DHT22;5855;48.840;9.188;2023-12-07T05:49:29;-0.40;99.90
11599;DHT22;5855;48.840;9.188;2023-12-07T05:51:56;-0.50;99.90
11599;DHT22;5855;48.840;9.188;2023-12-07T05:54:24;-0.50;99.90
11599;DHT22;5855;48.840;9.188;2023-12-07T05:56:51;-0.50;99.90
11599;DHT22;5855;48.840;9.188;2023-12-07T05:59:18;-0.60;99.90
11599;DHT22;5855;48.840;9.188;2023-12-07T06:01:45;-0.60;99.90
11599;DHT22;5855;48.840;9.188;2023-12-07T06:04:12;-0.60;99.90
11599;DHT22;5855;48.840;9.188;2023-12-07T06:06:38;-0.60;99.90
11599;DHT22;5855;48.840;9.188;2023-12-07T06:09:05;-0.60;99.90
11599;DHT22;5855;48.840;9.188;2023-12-07T06:11:34;-0.60;99.90
11599;DHT22;5855;48.840;9.188;2023-12-07T06:14:01;-0.60;99.90
11599;DHT22;5855;48.840;9.188;2023-12-07T06:16:31;-0.70;99.90
11599;DHT22;5855;48.840;9.188;2023-12-07T06:18:58;-0.70;99.90
11599;DHT22;5855;48.840;9.188;2023-12-07T06:21:25;-0.70;99.90
11599;DHT22;5855;48.840;9.188;2023-12-07T06:23:54;-0.70;99.90
11599;DHT22;5855;48.840;9.188;2023-12-07T06:26:20;-0.70;99.90
11599;DHT22;5855;48.840;9.188;2023-12-07T06:28:48;-0.70;99.90
11599;DHT22;5855;48.840;9.188;2023-12-07T06:31:15;-0.70;99.90
11599;DHT22;5855;48.840;9.188;2023-12-07T06:33:45;-0.80;99.90
11599;DHT22;5855;48.840;9.188;2023-12-07T06:36:18;-0.80;99.90
11599;DHT22;5855;48.840;9.188;2023-12-07T06:38:45;-0.80;99.90
11599;DHT22;5855;48.840;9.188;2023-12-07T06:41:13;-0.80;99.90
11599;DHT22;5855;48.840;9.188;2023-12-07T06:43:40;-0.80;99.90
11599;DHT22;5855;48.840;9.188;2023-12-07T06:46:08;-0.90;99.90
11599;DHT22;5855;48.840;9.188;2023-12-07T06:48:35;-0.90;99.90
11599;DHT22;5855;48.840;9.188;2023-12-07T06:51:03;-0.90;99.90
11599;DHT22;5855;48.840;9.188;2023-12-07T06:53:36;-1.00;99.90
11599;DHT22;5855;48.840;9.188;2023-12-07T06:56:06;-1.00;99.90
11599;DHT22;5855;48.840;9.188;2023-12-07T06:58:33;-1.00;99.90
11599;DHT22;5855;48.840;9.188;2023-12-07T07:01:00;-0.90;99.90
11599;DHT22;5855;48.840;9.188;2023-12-07T07:03:28;-0.90;99.90
11599;DHT22;5855;48.840;9.188;2023-12-07T07:05:55;-0.80;99.90
11599;DHT22;5855;48.840;9.188;2023-12-07T07:08:22;-0.80;99.90
11599;DHT22;5855;48.840;9.188;2023-12-07T07:10:49;-0.70;99.90
11599;DHT22;5855;48.840;9.188;2023-12-07T07:13:16;-0.70;99.90
11599;DHT22;5855;48.840;9.188;2023-12-07T07:15:45;-0.60;99.90
11599;DHT22;5855;48.840;9.188;2023-12-07T07:18:13;-0.70;99.90
11599;DHT22;5855;48.840;9.188;2023-12-07T07:20:41;-0.60;99.90
11599;DHT22;5855;48.840;9.188;2023-12-07T07:23:08;-0.70;99.90
11599;DHT22;5855;48.840;9.188;2023-12-07T07:25:36;-0.60;99.90
11599;DHT22;5855;48.840;9.188;2023-12-07T07:28:05;-0.60;99.90
11599;DHT22;5855;48.840;9.188;2023-12-07T07:30:33;-0.60;99.90
11599;DHT22;5855;48.840;9.188;2023-12-07T07:33:01;-0.60;99.90
11599;DHT22;5855;48.840;9.188;2023-12-07T07:35:28;-0.50;99.90
11599;DHT22;5855;48.840;9.188;2023-12-07T07:37:56;-0.50;99.90
11599;DHT22;5855;48.840;9.188;2023-12-07T07:40:23;-0.40;99.90
11599;DHT22;5855;48.840;9.188;2023-12-07T07:42:50;-0.40;99.90
11599;DHT22;5855;48.840;9.188;2023-12-07T07:45:17;-0.30;99.90
11599;DHT22;5855;48.840;9.188;2023-12-07T07:47:44;-0.30;99.90
11599;DHT22;5855;48.840;9.188;2023-12-07T07:50:11;-0.20;99.90
11599;DHT22;5855;48.840;9.188;2023-12-07T07:52:38;-0.10;99.90
11599;DHT22;5855;48.840;9.188;2023-12-07T07:55:07;-0.10;99.90
11599;DHT22;5855;48.840;9.188;2023-12-07T07:57:34;0.00;99.90
11599;DHT22;5855;48.840;9.188;2023-12-07T08:00:01;0.10;99.90
11599;DHT22;5855;48.840;9.188;2023-12-07T08:02:28;0.20;99.90
11599;DHT22;5855;48.840;9.188;2023-12-07T08:04:55;0.30;99.90
11599;DHT22;5855;48.840;9.188;2023-12-07T08:07:22;0.40;99.90
11599;DHT22;5855;48.840;9.188;2023-12-07T08:09:49;0.50;99.90
11599;DHT22;5855;48.840;9.188;2023-12-07T08:12:17;0.60;99.90
11599;DHT22;5855;48.840;9.188;2023-12-07T08:14:44;0.70;99.90
11599;DHT22;5855;48.840;9.188;2023-12-07T08:17:11;0.80;99.90
11599;DHT22;5855;48.840;9.188;2023-12-07T08:19:38;1.00;99.90
11599;DHT22;5855;48.840;9.188;2023-12-07T08:22:05;1.10;99.90
11599;DHT22;5855;48.840;9.188;2023-12-07T08:24:31;1.20;99.90
11599;DHT22;5855;48.840;9.188;2023-12-07T08:27:00;1.30;99.90
11599;DHT22;5855;48.840;9.188;2023-12-07T08:29:28;1.50;99.90
11599;DHT22;5855;48.840;9.188;2023-12-07T08:31:55;1.60;99.90
11599;DHT22;5855;48.840;9.188;2023-12-07T08:34:22;1.80;99.90
11599;DHT22;5855;48.840;9.188;2023-12-07T08:36:50;1.80;99.90
11599;DHT22;5855;48.840;9.188;2023-12-07T08:39:16;2.00;99.90
11599;DHT22;5855;48.840;9.188;2023-12-07T08:41:43;2.10;99.90
11599;DHT22;5855;48.840;9.188;2023-12-07T08:44:10;2.10;99.90
11599;DHT22;5855;48.840;9.188;2023-12-07T08:46:39;2.20;99.90
11599;DHT22;5855;48.840;9.188;2023-12-07T08:49:07;2.30;99.90
11599;DHT22;5855;48.840;9.188;2023-12-07T08:51:34;2.40;99.90
11599;DHT22;5855;48.840;9.188;2023-12-07T08:54:01;2.50;99.90
11599;DHT22;5855;48.840;9.188;2023-12-07T08:56:27;2.60;99.90
11599;DHT22;5855;48.840;9.188;2023-12-07T08:58:54;2.70;99.90
11599;DHT22;5855;48.840;9.188;2023-12-07T09:01:21;2.80;99.90
11599;DHT22;5855;48.840;9.188;2023-12-07T09:03:49;3.00;99.90
11599;DHT22;5855;48.840;9.188;2023-12-07T09:06:16;3.20;99.90
11599;DHT22;5855;48.840;9.188;2023-12-07T09:08:43;3.40;99.90
11599;DHT22;5855;48.840;9.188;2023-12-07T09:11:10;3.50;99.90
11599;DHT22;5855;48.840;9.188;2023-12-07T09:13:37;3.60;99.90
11599;DHT22;5855;48.840;9.188;2023-12-07T09:16:05;3.80;99.90
11599;DHT22;5855;48.840;9.188;2023-12-07T09:18:33;4.00;99.90
11599;DHT22;5855;48.840;9.188;2023-12-07T09:21:02;4.10;99.90
11599;DHT22;5855;48.840;9.188;2023-12-07T09:23:29;4.30;99.90
11599;DHT22;5855;48.840;9.188;2023-12-07T09:25:55;4.40;99.90
11599;DHT22;5855;48.840;9.188;2023-12-07T09:28:22;4.50;99.90
11599;DHT22;5855;48.840;9.188;2023-12-07T09:30:49;4.80;99.90
11599;DHT22;5855;48.840;9.188;2023-12-07T09:33:17;4.90;99.90
11599;DHT22;5855;48.840;9.188;2023-12-07T09:35:44;5.00;99.90
11599;DHT22;5855;48.840;9.188;2023-12-07T09:38:12;5.20;99.90
11599;DHT22;5855;48.840;9.188;2023-12-07T09:40:38;5.30;99.90
11599;DHT22;5855;48.840;9.188;2023-12-07T09:43:06;5.70;99.90
11599;DHT22;5855;48.840;9.188;2023-12-07T09:45:33;6.00;99.90
11599;DHT22;5855;48.840;9.188;2023-12-07T09:48:00;6.20;99.90
11599;DHT22;5855;48.840;9.188;2023-12-07T09:50:28;6.40;99.90
11599;DHT22;5855;48.840;9.188;2023-12-07T09:52:56;6.60;99.90
11599;DHT22;5855;48.840;9.188;2023-12-07T09:55:25;6.80;99.90
11599;DHT22;5855;48.840;9.188;2023-12-07T09:57:52;7.00;99.90
11599;DHT22;5855;48.840;9.188;2023-12-07T10:00:22;7.20;99.90
11599;DHT22;5855;48.840;9.188;2023-12-07T10:02:49;7.40;99.90
11599;DHT22;5855;48.840;9.188;2023-12-07T10:05:16;7.50;99.90
11599;DHT22;5855;48.840;9.188;2023-12-07T10:07:44;7.60;99.90
11599;DHT22;5855;48.840;9.188;2023-12-07T10:10:12;7.60;99.90
11599;DHT22;5855;48.840;9.188;2023-12-07T10:12:46;7.90;99.90
11599;DHT22;5855;48.840;9.188;2023-12-07T10:15:14;8.10;99.90
11599;DHT22;5855;48.840;9.188;2023-12-07T10:17:46;8.00;99.90
11599;DHT22;5855;48.840;9.188;2023-12-07T10:20:17;8.20;99.90
11599;DHT22;5855;48.840;9.188;2023-12-07T10:22:45;8.00;99.90
11599;DHT22;5855;48.840;9.188;2023-12-07T10:25:12;8.00;99.90
11599;DHT22;5855;48.840;9.188;2023-12-07T10:27:41;8.00;99.90
11599;DHT22;5855;48.840;9.188;2023-12-07T10:30:12;7.90;99.90
11599;DHT22;5855;48.840;9.188;2023-12-07T10:32:39;8.40;99.90
11599;DHT22;5855;48.840;9.188;2023-12-07T10:35:08;9.20;99.90
11599;DHT22;5855;48.840;9.188;2023-12-07T10:37:35;9.50;99.90
11599;DHT22;5855;48.840;9.188;2023-12-07T10:40:03;9.50;99.90
11599;DHT22;5855;48.840;9.188;2023-12-07T10:42:33;9.80;99.90
11599;DHT22;5855;48.840;9.188;2023-12-07T10:45:04;10.00;99.90
11599;DHT22;5855;48.840;9.188;2023-12-07T10:47:36;10.90;99.90
11599;DHT22;5855;48.840;9.188;2023-12-07T10:50:06;12.30;99.90
11599;DHT22;5855;48.840;9.188;2023-12-07T10:52:37;12.00;99.60
11599;DHT22;5855;48.840;9.188;2023-12-07T10:55:10;12.80;98.60
11599;DHT22;5855;48.840;9.188;2023-12-07T10:57:40;14.00;97.60
11599;DHT22;5855;48.840;9.188;2023-12-07T11:00:08;15.40;93.70
11599;DHT22;5855;48.840;9.188;2023-12-07T11:02:37;15.90;89.80
11599;DHT22;5855;48.840;9.188;2023-12-07T11:05:06;16.80;88.40
11599;DHT22;5855;48.840;9.188;2023-12-07T11:07:44;17.80;81.20
11599;DHT22;5855;48.840;9.188;2023-12-07T11:10:20;18.20;67.80
11599;DHT22;5855;48.840;9.188;2023-12-07T11:12:53;19.00;62.50
11599;DHT22;5855;48.840;9.188;2023-12-07T11:15:23;18.60;62.10
11599;DHT22;5855;48.840;9.188;2023-12-07T11:17:52;18.60;57.50
11599;DHT22;5855;48.840;9.188;2023-12-07T11:20:21;18.00;53.70
11599;DHT22;5855;48.840;9.188;2023-12-07T11:22:49;18.30;58.40
11599;DHT22;5855;48.840;9.188;2023-12-07T11:25:17;16.80;53.00
11599;DHT22;5855;48.840;9.188;2023-12-07T11:27:44;18.00;52.60
11599;DHT22;5855;48.840;9.188;2023-12-07T11:30:14;19.00;49.90
11599;DHT22;5855;48.840;9.188;2023-12-07T11:32:41;18.20;49.50
11599;DHT22;5855;48.840;9.188;2023-12-07T11:35:13;17.40;50.70
11599;DHT22;5855;48.840;9.188;2023-12-07T11:38:03;17.60;48.60
11599;DHT22;5855;48.840;9.188;2023-12-07T11:40:32;19.30;46.90
11599;DHT22;5855;48.840;9.188;2023-12-07T11:43:00;20.10;42.70
11599;DHT22;5855;48.840;9.188;2023-12-07T11:45:37;18.40;44.60
11599;DHT22;5855;48.840;9.188;2023-12-07T11:48:11;17.80;42.80
11599;DHT22;5855;48.840;9.188;2023-12-07T11:51:00;17.10;45.80
11599;DHT22;5855;48.840;9.188;2023-12-07T11:53:28;18.00;45.60
11599;DHT22;5855;48.840;9.188;2023-12-07T11:55:56;18.70;41.70
11599;DHT22;5855;48.840;9.188;2023-12-07T11:58:24;19.30;39.10
11599;DHT22;5855;48.840;9.188;2023-12-07T12:00:52;17.50;40.00
11599;DHT22;5855;48.840;9.188;2023-12-07T12:03:20;16.80;41.80
11599;DHT22;5855;48.840;9.188;2023-12-07T12:05:47;17.00;42.70
11599;DHT22;5855;48.840;9.188;2023-12-07T12:08:16;18.70;39.20
11599;DHT22;5855;48.840;9.188;2023-12-07T12:10:43;19.00;39.60
11599;DHT22;5855;48.840;9.188;2023-12-07T12:13:10;18.50;37.70
11599;DHT22;5855;48.840;9.188;2023-12-07T12:15:38;18.80;35.40
11599;DHT22;5855;48.840;9.188;2023-12-07T12:18:05;17.70;36.90
11599;DHT22;5855;48.840;9.188;2023-12-07T12:20:32;17.80;38.00
11599;DHT22;5855;48.840;9.188;2023-12-07T12:22:59;16.40;39.90
11599;DHT22;5855;48.840;9.188;2023-12-07T12:25:29;16.90;40.10
11599;DHT22;5855;48.840;9.188;2023-12-07T12:27:59;17.60;38.50
11599;DHT22;5855;48.840;9.188;2023-12-07T12:30:28;17.70;38.10
11599;DHT22;5855;48.840;9.188;2023-12-07T12:32:55;18.00;36.90
11599;DHT22;5855;48.840;9.188;2023-12-07T12:35:23;18.20;36.40
11599;DHT22;5855;48.840;9.188;2023-12-07T12:37:50;17.30;36.50
11599;DHT22;5855;48.840;9.188;2023-12-07T12:40:18;16.00;38.40
11599;DHT22;5855;48.840;9.188;2023-12-07T12:42:48;17.80;39.70
11599;DHT22;5855;48.840;9.188;2023-12-07T12:45:15;19.40;37.60
11599;DHT22;5855;48.840;9.188;2023-12-07T12:47:42;19.40;36.00
11599;DHT22;5855;48.840;9.188;2023-12-07T12:50:10;18.20;35.70
11599;DHT22;5855;48.840;9.188;2023-12-07T12:52:39;16.80;38.00
11599;DHT22;5855;48.840;9.188;2023-12-07T12:55:08;17.90;37.60
11599;DHT22;5855;48.840;9.188;2023-12-07T12:57:35;18.10;36.40
11599;DHT22;5855;48.840;9.188;2023-12-07T13:00:05;18.90;36.10
11599;DHT22;5855;48.840;9.188;2023-12-07T13:02:36;19.80;34.00
11599;DHT22;5855;48.840;9.188;2023-12-07T13:05:04;19.30;34.70
11599;DHT22;5855;48.840;9.188;2023-12-07T13:07:32;19.30;35.10
11599;DHT22;5855;48.840;9.188;2023-12-07T13:10:02;20.60;35.30
11599;DHT22;5855;48.840;9.188;2023-12-07T13:12:29;20.60;34.40
11599;DHT22;5855;48.840;9.188;2023-12-07T13:15:00;21.00;32.90
11599;DHT22;5855;48.840;9.188;2023-12-07T13:17:29;21.40;30.00
11599;DHT22;5855;48.840;9.188;2023-12-07T13:19:56;21.00;30.00
11599;DHT22;5855;48.840;9.188;2023-12-07T13:22:23;18.90;28.00
11599;DHT22;5855;48.840;9.188;2023-12-07T13:24:49;16.80;30.00
11599;DHT22;5855;48.840;9.188;2023-12-07T13:27:16;15.90;31.90
11599;DHT22;5855;48.840;9.188;2023-12-07T13:29:46;15.00;34.40
11599;DHT22;5855;48.840;9.188;2023-12-07T13:32:13;14.50;35.30
11599;DHT22;5855;48.840;9.188;2023-12-07T13:34:41;14.20;35.60
11599;DHT22;5855;48.840;9.188;2023-12-07T13:37:09;13.30;37.80
11599;DHT22;5855;48.840;9.188;2023-12-07T13:39:36;12.80;40.20
11599;DHT22;5855;48.840;9.188;2023-12-07T13:42:04;13.20;39.80
11599;DHT22;5855;48.840;9.188;2023-12-07T13:44:30;13.80;39.70
11599;DHT22;5855;48.840;9.188;2023-12-07T13:46:58;14.10;38.90
11599;DHT22;5855;48.840;9.188;2023-12-07T13:49:25;13.50;38.90
11599;DHT22;5855;48.840;9.188;2023-12-07T13:51:53;13.20;39.40
11599;DHT22;5855;48.840;9.188;2023-12-07T13:54:20;12.10;41.80
11599;DHT22;5855;48.840;9.188;2023-12-07T13:56:47;12.10;43.80
11599;DHT22;5855;48.840;9.188;2023-12-07T13:59:14;12.10;43.80
11599;DHT22;5855;48.840;9.188;2023-12-07T14:01:41;12.40;44.20
11599;DHT22;5855;48.840;9.188;2023-12-07T14:04:08;13.20;43.20
11599;DHT22;5855;48.840;9.188;2023-12-07T14:06:35;13.00;42.80
11599;DHT22;5855;48.840;9.188;2023-12-07T14:09:03;13.70;42.40
11599;DHT22;5855;48.840;9.188;2023-12-07T14:11:30;13.80;40.70
11599;DHT22;5855;48.840;9.188;2023-12-07T14:13:57;13.90;41.50
11599;DHT22;5855;48.840;9.188;2023-12-07T14:16:23;14.10;40.60
11599;DHT22;5855;48.840;9.188;2023-12-07T14:18:50;15.30;39.10
11599;DHT22;5855;48.840;9.188;2023-12-07T14:21:19;14.80;38.80
11599;DHT22;5855;48.840;9.188;2023-12-07T14:23:47;13.30;39.70
11599;DHT22;5855;48.840;9.188;2023-12-07T14:26:15;12.60;41.70
11599;DHT22;5855;48.840;9.188;2023-12-07T14:28:42;11.90;42.90
11599;DHT22;5855;48.840;9.188;2023-12-07T14:31:09;11.20;43.70
11599;DHT22;5855;48.840;9.188;2023-12-07T14:33:42;10.40;45.20
11599;DHT22;5855;48.840;9.188;2023-12-07T14:36:10;9.30;47.50
11599;DHT22;5855;48.840;9.188;2023-12-07T14:38:37;8.80;48.20
11599;DHT22;5855;48.840;9.188;2023-12-07T14:41:06;8.20;50.00
11599;DHT22;5855;48.840;9.188;2023-12-07T14:43:35;8.20;51.70
11599;DHT22;5855;48.840;9.188;2023-12-07T14:46:01;8.10;50.70
11599;DHT22;5855;48.840;9.188;2023-12-07T14:48:29;8.00;50.90
11599;DHT22;5855;48.840;9.188;2023-12-07T14:50:55;7.50;53.40
11599;DHT22;5855;48.840;9.188;2023-12-07T14:53:22;6.90;56.80
11599;DHT22;5855;48.840;9.188;2023-12-07T14:55:50;6.60;59.00
11599;DHT22;5855;48.840;9.188;2023-12-07T14:58:17;6.20;61.20
11599;DHT22;5855;48.840;9.188;2023-12-07T15:00:45;6.00;63.30
11599;DHT22;5855;48.840;9.188;2023-12-07T15:03:12;5.70;66.00
11599;DHT22;5855;48.840;9.188;2023-12-07T15:05:39;5.60;67.10
11599;DHT22;5855;48.840;9.188;2023-12-07T15:08:07;5.50;69.40
11599;DHT22;5855;48.840;9.188;2023-12-07T15:10:34;5.30;71.60
11599;DHT22;5855;48.840;9.188;2023-12-07T15:13:00;5.10;71.70
11599;DHT22;5855;48.840;9.188;2023-12-07T15:15:28;5.10;73.40
11599;DHT22;5855;48.840;9.188;2023-12-07T15:17:56;5.10;74.20
11599;DHT22;5855;48.840;9.188;2023-12-07T15:20:23;5.00;74.20
11599;DHT22;5855;48.840;9.188;2023-12-07T15:22:50;4.90;75.90
11599;DHT22;5855;48.840;9.188;2023-12-07T15:25:17;4.90;75.30
11599;DHT22;5855;48.840;9.188;2023-12-07T15:27:44;4.80;75.50
11599;DHT22;5855;48.840;9.188;2023-12-07T15:30:13;4.60;78.30
11599;DHT22;5855;48.840;9.188;2023-12-07T15:32:41;4.40;80.90
11599;DHT22;5855;48.840;9.188;2023-12-07T15:35:09;4.30;82.70
11599;DHT22;5855;48.840;9.188;2023-12-07T15:37:36;4.20;83.60
11599;DHT22;5855;48.840;9.188;2023-12-07T15:40:04;4.10;86.00
11599;DHT22;5855;48.840;9.188;2023-12-07T15:42:34;4.00;87.50
11599;DHT22;5855;48.840;9.188;2023-12-07T15:45:01;4.00;87.00
11599;DHT22;5855;48.840;9.188;2023-12-07T15:47:28;4.00;87.90
11599;DHT22;5855;48.840;9.188;2023-12-07T15:49:55;3.90;88.40
11599;DHT22;5855;48.840;9.188;2023-12-07T15:52:24;3.90;89.50
11599;DHT22;5855;48.840;9.188;2023-12-07T15:54:51;3.80;91.00
11599;DHT22;5855;48.840;9.188;2023-12-07T15:57:18;3.70;91.60